createdAt,value
2023-02-03T00:00:30.372Z,0.40
2023-02-03T00:01:30.373Z,0.40
2023-02-03T00:02:30.376Z,0.40
2023-02-03T00:03:30.361Z,0.40
2023-02-03T00:04:30.370Z,0.30
2023-02-03T00:05:30.383Z,0.40
2023-02-03T00:06:30.365Z,0.40
2023-02-03T00:07:30.357Z,0.40
2023-02-03T00:08:30.364Z,0.30
2023-02-03T00:09:30.355Z,0.40
2023-02-03T00:10:30.364Z,0.40
2023-02-03T00:11:30.354Z,0.50
2023-02-03T00:12:30.358Z,0.40
2023-02-03T00:13:30.351Z,0.40
2023-02-03T00:14:30.359Z,0.40
2023-02-03T00:15:30.377Z,0.30
2023-02-03T00:16:30.397Z,0.50
2023-02-03T00:17:30.352Z,0.40
2023-02-03T00:18:30.355Z,0.30
2023-02-03T00:19:30.347Z,0.40
2023-02-03T00:20:30.359Z,0.30
2023-02-03T00:21:30.362Z,0.40
2023-02-03T00:22:30.350Z,0.40
2023-02-03T00:23:30.345Z,0.30
2023-02-03T00:24:30.349Z,0.40
2023-02-03T00:25:30.341Z,0.40
2023-02-03T00:26:30.345Z,0.40
2023-02-03T00:27:30.337Z,0.40
2023-02-03T00:28:30.344Z,0.40
2023-02-03T00:29:30.337Z,0.50
2023-02-03T00:30:30.342Z,0.50
2023-02-03T00:31:30.465Z,0.40
2023-02-03T00:32:30.446Z,0.50
2023-02-03T00:33:30.332Z,0.40
2023-02-03T00:34:30.386Z,0.50
2023-02-03T00:35:30.332Z,0.40
2023-02-03T00:36:30.335Z,0.40
2023-02-03T00:37:30.332Z,0.40
2023-02-03T00:38:30.337Z,0.40
2023-02-03T00:39:30.345Z,0.40
2023-02-03T00:40:30.344Z,0.40
2023-02-03T00:41:30.328Z,0.40
2023-02-03T00:42:30.333Z,0.50
2023-02-03T00:43:30.324Z,0.30
2023-02-03T00:44:30.334Z,0.40
2023-02-03T00:45:30.373Z,0.40
2023-02-03T00:46:30.330Z,0.30
2023-02-03T00:47:30.344Z,0.40
2023-02-03T00:48:30.326Z,0.40
2023-02-03T00:49:30.318Z,0.40
2023-02-03T00:50:30.333Z,0.40
2023-02-03T00:51:30.315Z,0.40
2023-02-03T00:52:30.327Z,0.40
2023-02-03T00:53:30.318Z,0.50
2023-02-03T00:54:32.042Z,0.30
2023-02-03T00:55:30.318Z,0.40
2023-02-03T00:56:30.319Z,0.40
2023-02-03T00:57:30.311Z,0.50
2023-02-03T00:58:30.321Z,0.40
2023-02-03T00:59:30.310Z,0.40
2023-02-03T01:00:30.316Z,0.50
2023-02-03T01:01:30.379Z,0.40
2023-02-03T01:02:30.335Z,0.50
2023-02-03T01:03:30.370Z,0.40
2023-02-03T01:04:30.314Z,0.50
2023-02-03T01:05:30.378Z,0.40
2023-02-03T01:06:30.308Z,0.50
2023-02-03T01:07:30.298Z,0.40
2023-02-03T01:08:30.305Z,0.50
2023-02-03T01:09:30.298Z,0.40
2023-02-03T01:10:30.321Z,0.40
2023-02-03T01:11:30.319Z,0.40
2023-02-03T01:12:30.301Z,0.40
2023-02-03T01:13:30.296Z,0.40
2023-02-03T01:14:30.300Z,0.50
2023-02-03T01:15:30.314Z,0.50
2023-02-03T01:16:30.360Z,0.40
2023-02-03T01:17:30.304Z,0.40
2023-02-03T01:18:30.319Z,0.50
2023-02-03T01:19:30.312Z,0.50
2023-02-03T01:20:30.300Z,0.50
2023-02-03T01:21:30.287Z,0.50
2023-02-03T01:22:30.297Z,0.30
2023-02-03T01:23:30.286Z,0.40
2023-02-03T01:24:30.292Z,0.50
2023-02-03T01:25:30.284Z,0.50
2023-02-03T01:26:30.290Z,0.40
2023-02-03T01:27:30.281Z,0.40
2023-02-03T01:28:30.289Z,0.70
2023-02-03T01:29:30.281Z,0.60
2023-02-03T01:30:30.413Z,0.40
2023-02-03T01:31:30.506Z,0.40
2023-02-03T01:32:30.290Z,0.60
2023-02-03T01:33:30.276Z,0.50
2023-02-03T01:34:30.289Z,0.40
2023-02-03T01:35:30.293Z,0.50
2023-02-03T01:36:30.297Z,0.40
2023-02-03T01:37:30.273Z,0.50
2023-02-03T01:38:30.279Z,0.40
2023-02-03T01:39:30.469Z,0.50
2023-02-03T01:40:30.276Z,0.60
2023-02-03T01:41:30.270Z,0.50
2023-02-03T01:42:30.276Z,0.40
2023-02-03T01:43:30.276Z,0.40
2023-02-03T01:44:30.272Z,0.50
2023-02-03T01:45:30.268Z,0.50
2023-02-03T01:46:30.421Z,0.40
2023-02-03T01:47:30.259Z,0.40
2023-02-03T01:48:30.268Z,0.50
2023-02-03T01:49:30.270Z,0.50
2023-02-03T01:50:30.265Z,0.40
2023-02-03T01:51:30.279Z,0.50
2023-02-03T01:52:30.262Z,0.60
2023-02-03T01:53:30.256Z,0.50
2023-02-03T01:54:30.259Z,0.50
2023-02-03T01:55:30.252Z,0.60
2023-02-03T01:56:30.260Z,0.50
2023-02-03T01:57:30.251Z,0.30
2023-02-03T01:58:30.272Z,0.50
2023-02-03T01:59:30.249Z,0.50
2023-02-03T02:00:30.258Z,0.50
2023-02-03T02:01:30.352Z,0.40
2023-02-03T02:02:30.321Z,0.50
2023-02-03T02:03:30.245Z,0.50
2023-02-03T02:04:30.259Z,0.40
2023-02-03T02:05:30.243Z,0.70
2023-02-03T02:06:30.257Z,0.50
2023-02-03T02:07:30.326Z,0.50
2023-02-03T02:08:30.247Z,0.40
2023-02-03T02:09:30.242Z,0.50
2023-02-03T02:10:30.248Z,0.50
2023-02-03T02:11:30.237Z,0.70
2023-02-03T02:12:30.244Z,0.50
2023-02-03T02:13:30.237Z,0.70
2023-02-03T02:14:30.243Z,0.50
2023-02-03T02:15:30.281Z,0.50
2023-02-03T02:16:30.238Z,0.50
2023-02-03T02:17:30.253Z,0.50
2023-02-03T02:18:30.231Z,0.60
2023-02-03T02:19:30.237Z,0.50
2023-02-03T02:20:30.229Z,0.60
2023-02-03T02:21:30.235Z,0.70
2023-02-03T02:22:30.230Z,0.60
2023-02-03T02:23:30.254Z,0.50
2023-02-03T02:24:30.224Z,0.50
2023-02-03T02:25:30.230Z,0.50
2023-02-03T02:26:30.224Z,0.50
2023-02-03T02:27:30.227Z,0.60
2023-02-03T02:28:30.226Z,0.50
2023-02-03T02:29:30.234Z,0.60
2023-02-03T02:30:30.225Z,0.70
2023-02-03T02:31:30.328Z,0.60
2023-02-03T02:32:30.219Z,0.50
2023-02-03T02:33:30.232Z,0.50
2023-02-03T02:34:30.218Z,0.50
2023-02-03T02:35:30.231Z,0.50
2023-02-03T02:36:30.215Z,0.60
2023-02-03T02:37:30.222Z,0.50
2023-02-03T02:38:30.213Z,0.60
2023-02-03T02:39:30.247Z,0.60
2023-02-03T02:40:30.209Z,0.50
2023-02-03T02:41:30.218Z,0.50
2023-02-03T02:42:30.209Z,0.60
2023-02-03T02:43:30.211Z,0.50
2023-02-03T02:44:30.212Z,0.50
2023-02-03T02:45:30.230Z,0.50
2023-02-03T02:46:30.284Z,0.60
2023-02-03T02:47:30.210Z,0.50
2023-02-03T02:48:30.212Z,0.70
2023-02-03T02:49:30.244Z,0.70
2023-02-03T02:50:30.205Z,0.50
2023-02-03T02:51:30.206Z,0.60
2023-02-03T02:52:30.197Z,0.50
2023-02-03T02:53:30.202Z,0.60
2023-02-03T02:54:30.198Z,0.70
2023-02-03T02:55:30.227Z,0.60
2023-02-03T02:56:30.195Z,0.50
2023-02-03T02:57:30.204Z,0.60
2023-02-03T02:58:30.193Z,0.60
2023-02-03T02:59:30.201Z,0.50
2023-02-03T03:00:30.191Z,0.70
2023-02-03T03:01:30.301Z,0.70
2023-02-03T03:02:30.188Z,0.70
2023-02-03T03:03:30.191Z,0.60
2023-02-03T03:04:30.306Z,0.50
2023-02-03T03:05:30.194Z,0.70
2023-02-03T03:06:30.185Z,0.60
2023-02-03T03:07:30.189Z,0.60
2023-02-03T03:08:30.184Z,0.60
2023-02-03T03:09:30.246Z,0.60
2023-02-03T03:10:30.181Z,0.60
2023-02-03T03:11:30.213Z,0.70
2023-02-03T03:12:30.177Z,0.60
2023-02-03T03:13:30.193Z,0.60
2023-02-03T03:14:30.175Z,0.60
2023-02-03T03:15:30.179Z,0.70
2023-02-03T03:16:30.185Z,0.70
2023-02-03T03:17:30.191Z,0.50
2023-02-03T03:18:30.175Z,0.60
2023-02-03T03:19:30.177Z,0.60
2023-02-03T03:20:30.170Z,0.60
2023-02-03T03:21:30.177Z,0.60
2023-02-03T03:22:30.178Z,0.60
2023-02-03T03:23:30.176Z,0.50
2023-02-03T03:24:30.183Z,0.80
2023-02-03T03:25:30.183Z,0.60
2023-02-03T03:26:30.166Z,0.60
2023-02-03T03:27:30.198Z,0.60
2023-02-03T03:28:30.162Z,0.60
2023-02-03T03:29:30.193Z,0.60
2023-02-03T03:30:30.156Z,0.70
2023-02-03T03:31:30.299Z,0.60
2023-02-03T03:32:30.159Z,0.60
2023-02-03T03:33:30.164Z,0.80
2023-02-03T03:34:30.156Z,0.60
2023-02-03T03:35:30.161Z,0.60
2023-02-03T03:36:30.150Z,0.60
2023-02-03T03:37:30.180Z,0.60
2023-02-03T03:38:30.151Z,0.50
2023-02-03T03:39:30.164Z,0.60
2023-02-03T03:40:30.154Z,0.60
2023-02-03T03:41:30.159Z,0.70
2023-02-03T03:42:31.743Z,0.80
2023-02-03T03:43:30.207Z,0.60
2023-02-03T03:44:30.173Z,0.60
2023-02-03T03:45:30.156Z,0.70
2023-02-03T03:46:30.270Z,0.70
2023-02-03T03:47:30.149Z,0.60
2023-02-03T03:48:30.152Z,0.70
2023-02-03T03:49:30.152Z,0.60
2023-02-03T03:50:30.140Z,0.60
2023-02-03T03:51:30.146Z,0.80
2023-02-03T03:52:30.139Z,0.70
2023-02-03T03:53:30.144Z,0.70
2023-02-03T03:54:30.136Z,0.50
2023-02-03T03:55:30.141Z,0.60
2023-02-03T03:56:30.134Z,0.50
2023-02-03T03:57:30.140Z,0.70
2023-02-03T03:58:30.132Z,0.70
2023-02-03T03:59:30.167Z,0.70
2023-02-03T04:00:30.127Z,0.70
2023-02-03T04:01:30.304Z,0.60
2023-02-03T04:02:30.220Z,0.60
2023-02-03T04:03:30.252Z,0.60
2023-02-03T04:04:30.126Z,0.60
2023-02-03T04:05:30.132Z,0.60
2023-02-03T04:06:30.131Z,0.60
2023-02-03T04:07:30.130Z,0.60
2023-02-03T04:08:30.121Z,0.60
2023-02-03T04:09:30.128Z,0.60
2023-02-03T04:10:30.129Z,0.60
2023-02-03T04:11:30.127Z,0.60
2023-02-03T04:12:30.117Z,0.70
2023-02-03T04:13:30.128Z,0.70
2023-02-03T04:14:30.175Z,0.70
2023-02-03T04:15:30.155Z,0.80
2023-02-03T04:16:30.238Z,0.60
2023-02-03T04:17:30.121Z,0.70
2023-02-03T04:18:30.126Z,0.70
2023-02-03T04:19:30.131Z,0.80
2023-02-03T04:20:30.153Z,0.80
2023-02-03T04:21:30.121Z,0.60
2023-02-03T04:22:30.107Z,0.60
2023-02-03T04:23:30.112Z,0.70
2023-02-03T04:24:30.106Z,0.60
2023-02-03T04:25:30.165Z,0.70
2023-02-03T04:26:30.112Z,0.70
2023-02-03T04:27:30.114Z,0.60
2023-02-03T04:28:30.101Z,0.70
2023-02-03T04:29:30.106Z,0.60
2023-02-03T04:30:30.389Z,0.50
2023-02-03T04:31:30.234Z,0.80
2023-02-03T04:32:30.096Z,0.80
2023-02-03T04:33:30.106Z,0.70
2023-02-03T04:34:30.107Z,0.80
2023-02-03T04:35:30.103Z,0.70
2023-02-03T04:36:30.097Z,0.50
2023-02-03T04:37:30.106Z,0.70
2023-02-03T04:38:30.094Z,0.70
2023-02-03T04:39:30.094Z,0.60
2023-02-03T04:40:30.394Z,0.80
2023-02-03T04:41:30.093Z,0.80
2023-02-03T04:42:30.088Z,0.70
2023-02-03T04:43:30.089Z,0.60
2023-02-03T04:44:30.082Z,0.60
2023-02-03T04:45:30.160Z,0.60
2023-02-03T04:46:30.080Z,0.70
2023-02-03T04:47:30.107Z,0.70
2023-02-03T04:48:30.078Z,0.70
2023-02-03T04:49:30.084Z,0.70
2023-02-03T04:50:30.077Z,0.60
2023-02-03T04:51:30.090Z,0.60
2023-02-03T04:52:30.078Z,0.60
2023-02-03T04:53:30.081Z,0.60
2023-02-03T04:54:30.083Z,0.70
2023-02-03T04:55:30.093Z,0.80
2023-02-03T04:56:30.072Z,0.60
2023-02-03T04:57:30.077Z,0.70
2023-02-03T04:58:30.080Z,0.80
2023-02-03T04:59:30.080Z,0.70
2023-02-03T05:00:30.556Z,0.70
2023-02-03T05:01:30.075Z,0.80
2023-02-03T05:02:30.065Z,0.60
2023-02-03T05:03:30.195Z,0.60
2023-02-03T05:04:30.065Z,0.50
2023-02-03T05:05:30.070Z,0.80
2023-02-03T05:06:30.089Z,0.70
2023-02-03T05:07:30.066Z,0.70
2023-02-03T05:08:30.058Z,0.60
2023-02-03T05:09:30.064Z,0.80
2023-02-03T05:10:30.061Z,0.60
2023-02-03T05:11:30.074Z,0.60
2023-02-03T05:12:30.068Z,0.70
2023-02-03T05:13:30.129Z,0.60
2023-02-03T05:14:30.052Z,0.70
2023-02-03T05:15:30.079Z,0.70
2023-02-03T05:16:30.210Z,0.80
2023-02-03T05:17:30.057Z,0.80
2023-02-03T05:18:30.047Z,0.80
2023-02-03T05:19:30.077Z,0.80
2023-02-03T05:20:30.048Z,0.70
2023-02-03T05:21:30.058Z,0.70
2023-02-03T05:22:30.048Z,0.60
2023-02-03T05:23:30.059Z,0.90
2023-02-03T05:24:30.041Z,0.60
2023-02-03T05:25:30.052Z,0.60
2023-02-03T05:26:30.058Z,0.60
2023-02-03T05:27:30.047Z,0.60
2023-02-03T05:28:30.040Z,0.70
2023-02-03T05:29:30.046Z,0.70
2023-02-03T05:30:30.480Z,0.70
2023-02-03T05:31:30.141Z,0.90
2023-02-03T05:32:30.035Z,0.70
2023-02-03T05:33:30.052Z,0.70
2023-02-03T05:34:30.034Z,0.70
2023-02-03T05:35:30.063Z,0.50
2023-02-03T05:36:30.041Z,0.70
2023-02-03T05:37:30.042Z,0.70
2023-02-03T05:38:30.034Z,0.60
2023-02-03T05:39:30.038Z,0.60
2023-02-03T05:40:30.253Z,0.70
2023-02-03T05:41:30.034Z,0.70
2023-02-03T05:42:30.025Z,0.60
2023-02-03T05:43:30.029Z,0.60
2023-02-03T05:44:30.024Z,0.80
2023-02-03T05:45:30.061Z,0.70
2023-02-03T05:46:30.040Z,0.70
2023-02-03T05:47:30.027Z,0.70
2023-02-03T05:48:30.025Z,0.60
2023-02-03T05:49:30.034Z,0.60
2023-02-03T05:50:30.016Z,0.70
2023-02-03T05:51:30.061Z,0.70
2023-02-03T05:52:30.019Z,0.70
2023-02-03T05:53:30.019Z,0.60
2023-02-03T05:54:30.011Z,0.70
2023-02-03T05:55:30.018Z,0.60
2023-02-03T05:56:30.014Z,0.60
2023-02-03T05:57:32.172Z,0.70
2023-02-03T05:58:30.011Z,0.70
2023-02-03T05:59:30.014Z,0.60
2023-02-03T06:00:30.142Z,0.60
2023-02-03T06:01:30.010Z,0.60
2023-02-03T06:02:30.002Z,0.70
2023-02-03T06:03:30.086Z,0.60
2023-02-03T06:04:30.053Z,0.60
2023-02-03T06:05:30.007Z,0.70
2023-02-03T06:06:30.000Z,0.50
2023-02-03T06:07:30.026Z,0.60
2023-02-03T06:08:29.996Z,0.60
2023-02-03T06:09:30.005Z,0.70
2023-02-03T06:10:30.217Z,0.70
2023-02-03T06:11:30.010Z,0.60
2023-02-03T06:12:29.997Z,0.60
2023-02-03T06:13:30.006Z,0.50
2023-02-03T06:14:29.991Z,0.70
2023-02-03T06:15:29.996Z,0.60
2023-02-03T06:16:30.076Z,0.70
2023-02-03T06:17:29.996Z,0.60
2023-02-03T06:18:29.987Z,0.60
2023-02-03T06:19:29.994Z,0.50
2023-02-03T06:20:30.158Z,0.70
2023-02-03T06:21:29.992Z,0.70
2023-02-03T06:22:29.983Z,0.50
2023-02-03T06:23:30.016Z,0.50
2023-02-03T06:24:29.986Z,0.50
2023-02-03T06:25:29.987Z,0.50
2023-02-03T06:26:29.978Z,0.50
2023-02-03T06:27:29.985Z,0.50
2023-02-03T06:28:29.976Z,0.60
2023-02-03T06:29:29.983Z,0.50
2023-02-03T06:30:30.314Z,0.80
2023-02-03T06:31:30.082Z,0.60
2023-02-03T06:32:29.971Z,0.70
2023-02-03T06:33:29.969Z,0.60
2023-02-03T06:34:29.978Z,0.60
2023-02-03T06:35:29.972Z,0.60
2023-02-03T06:36:29.974Z,0.70
2023-02-03T06:37:29.966Z,0.70
2023-02-03T06:38:29.977Z,0.70
2023-02-03T06:39:30.001Z,0.50
2023-02-03T06:40:30.528Z,0.60
2023-02-03T06:41:29.967Z,0.50
2023-02-03T06:42:29.968Z,0.60
2023-02-03T06:43:29.957Z,0.60
2023-02-03T06:44:29.971Z,0.60
2023-02-03T06:45:29.957Z,0.50
2023-02-03T06:46:30.155Z,0.50
2023-02-03T06:47:29.972Z,0.50
2023-02-03T06:48:29.964Z,0.70
2023-02-03T06:49:29.952Z,0.60
2023-02-03T06:50:30.266Z,0.80
2023-02-03T06:51:29.952Z,0.60
2023-02-03T06:52:29.960Z,0.40
2023-02-03T06:53:29.951Z,0.40
2023-02-03T06:54:29.960Z,0.50
2023-02-03T06:55:29.981Z,0.50
2023-02-03T06:56:29.958Z,0.60
2023-02-03T06:57:29.945Z,0.60
2023-02-03T06:58:29.992Z,0.50
2023-02-03T06:59:29.943Z,0.50
2023-02-03T07:00:30.302Z,0.50
2023-02-03T07:01:30.090Z,0.50
2023-02-03T07:02:30.071Z,0.40
2023-02-03T07:03:29.942Z,0.60
2023-02-03T07:04:29.942Z,0.60
2023-02-03T07:05:29.935Z,0.40
2023-02-03T07:06:29.945Z,0.40
2023-02-03T07:07:29.933Z,0.50
2023-02-03T07:08:29.938Z,0.50
2023-02-03T07:09:29.932Z,0.40
2023-02-03T07:10:30.268Z,0.50
2023-02-03T07:11:29.968Z,0.50
2023-02-03T07:12:29.935Z,0.60
2023-02-03T07:13:29.962Z,0.50
2023-02-03T07:14:29.931Z,0.50
2023-02-03T07:15:29.943Z,0.50
2023-02-03T07:16:29.933Z,0.40
2023-02-03T07:17:29.927Z,0.50
2023-02-03T07:18:46.274Z,0.40
2023-02-03T07:19:29.921Z,0.50
2023-02-03T07:20:30.374Z,0.50
2023-02-03T07:21:29.919Z,0.40
2023-02-03T07:22:29.924Z,0.50
2023-02-03T07:23:29.916Z,0.40
2023-02-03T07:24:29.923Z,0.60
2023-02-03T07:25:29.915Z,0.40
2023-02-03T07:26:29.919Z,0.40
2023-02-03T07:27:29.934Z,0.40
2023-02-03T07:28:29.916Z,0.40
2023-02-03T07:29:29.909Z,0.50
2023-02-03T07:30:30.364Z,0.50
2023-02-03T07:31:30.029Z,0.40
2023-02-03T07:32:31.822Z,0.40
2023-02-03T07:33:29.905Z,0.50
2023-02-03T07:34:29.949Z,0.30
2023-02-03T07:35:29.900Z,0.50
2023-02-03T07:36:29.907Z,0.40
2023-02-03T07:37:29.899Z,0.40
2023-02-03T07:38:29.905Z,0.40
2023-02-03T07:39:29.897Z,0.50
2023-02-03T07:40:30.091Z,0.40
2023-02-03T07:41:29.895Z,0.40
2023-02-03T07:42:29.904Z,0.40
2023-02-03T07:43:29.914Z,0.40
2023-02-03T07:44:29.900Z,0.50
2023-02-03T07:45:29.895Z,0.60
2023-02-03T07:46:30.079Z,0.40
2023-02-03T07:47:29.891Z,0.50
2023-02-03T07:48:29.901Z,0.40
2023-02-03T07:49:29.890Z,0.50
2023-02-03T07:50:30.265Z,0.50
2023-02-03T07:51:29.885Z,0.50
2023-02-03T07:52:29.892Z,0.40
2023-02-03T07:53:29.895Z,0.40
2023-02-03T07:54:29.899Z,0.40
2023-02-03T07:55:29.884Z,0.60
2023-02-03T07:56:29.890Z,0.50
2023-02-03T07:57:29.885Z,0.40
2023-02-03T07:58:29.884Z,0.50
2023-02-03T07:59:29.912Z,0.40
2023-02-03T08:00:30.240Z,0.40
2023-02-03T08:01:29.961Z,0.60
2023-02-03T08:02:29.883Z,0.50
2023-02-03T08:03:29.881Z,0.40
2023-02-03T08:04:30.009Z,0.40
2023-02-03T08:05:29.873Z,0.30
2023-02-03T08:06:29.877Z,0.50
2023-02-03T08:07:29.874Z,0.70
2023-02-03T08:08:29.873Z,0.40
2023-02-03T08:09:29.867Z,0.40
2023-02-03T08:10:30.371Z,0.50
2023-02-03T08:11:29.865Z,0.50
2023-02-03T08:12:29.874Z,0.30
2023-02-03T08:13:29.862Z,0.40
2023-02-03T08:14:29.869Z,0.40
2023-02-03T08:15:29.882Z,0.40
2023-02-03T08:16:29.929Z,0.40
2023-02-03T08:17:29.857Z,0.30
2023-02-03T08:18:32.550Z,0.40
2023-02-03T08:19:29.855Z,0.40
2023-02-03T08:20:30.342Z,0.40
2023-02-03T08:21:29.853Z,0.40
2023-02-03T08:22:29.858Z,0.40
2023-02-03T08:23:29.849Z,0.40
2023-02-03T08:24:29.859Z,0.40
2023-02-03T08:25:29.859Z,0.40
2023-02-03T08:26:29.863Z,0.40
2023-02-03T08:27:29.846Z,0.50
2023-02-03T08:28:29.852Z,0.40
2023-02-03T08:29:29.847Z,0.40
2023-02-03T08:30:30.291Z,0.40
2023-02-03T08:31:30.009Z,0.30
2023-02-03T08:32:29.848Z,0.40
2023-02-03T08:33:29.843Z,0.40
2023-02-03T08:34:29.850Z,0.40
2023-02-03T08:35:29.846Z,0.40
2023-02-03T08:36:29.851Z,0.40
2023-02-03T08:37:29.837Z,0.40
2023-02-03T08:38:29.849Z,0.40
2023-02-03T08:39:29.832Z,0.40
2023-02-03T08:40:30.373Z,0.40
2023-02-03T08:41:29.833Z,0.30
2023-02-03T08:42:29.836Z,0.40
2023-02-03T08:43:29.828Z,0.30
2023-02-03T08:44:29.836Z,0.50
2023-02-03T08:45:29.893Z,0.30
2023-02-03T08:46:29.834Z,0.50
2023-02-03T08:47:29.853Z,0.40
2023-02-03T08:48:29.831Z,0.30
2023-02-03T08:49:29.822Z,0.30
2023-02-03T08:50:30.211Z,0.40
2023-02-03T08:51:29.819Z,0.40
2023-02-03T08:52:29.832Z,0.30
2023-02-03T08:53:29.818Z,0.30
2023-02-03T08:54:29.833Z,0.40
2023-02-03T08:55:29.817Z,0.40
2023-02-03T08:56:29.823Z,0.40
2023-02-03T08:57:29.816Z,0.30
2023-02-03T08:58:29.818Z,0.40
2023-02-03T08:59:29.811Z,0.40
2023-02-03T09:00:30.235Z,0.20
2023-02-03T09:01:29.850Z,0.40
2023-02-03T09:02:29.824Z,0.30
2023-02-03T09:03:29.836Z,0.40
2023-02-03T09:04:29.878Z,0.30
2023-02-03T09:05:29.877Z,0.50
2023-02-03T09:06:29.820Z,0.30
2023-02-03T09:07:29.809Z,0.40
2023-02-03T09:08:29.809Z,0.40
2023-02-03T09:09:29.803Z,0.30
2023-02-03T09:10:30.218Z,0.40
2023-02-03T09:11:29.800Z,0.30
2023-02-03T09:12:29.809Z,0.40
2023-02-03T09:13:29.805Z,0.40
2023-02-03T09:14:29.821Z,0.40
2023-02-03T09:15:29.796Z,0.30
2023-02-03T09:16:29.876Z,0.30
2023-02-03T09:17:29.817Z,0.30
2023-02-03T09:18:29.798Z,0.30
2023-02-03T09:19:29.813Z,0.40
2023-02-03T09:20:30.136Z,0.50
2023-02-03T09:21:34.036Z,0.30
2023-02-03T09:22:29.799Z,0.40
2023-02-03T09:23:29.786Z,0.30
2023-02-03T09:24:29.793Z,0.30
2023-02-03T09:25:29.804Z,0.40
2023-02-03T09:26:29.798Z,0.30
2023-02-03T09:27:29.786Z,0.30
2023-02-03T09:28:29.792Z,0.30
2023-02-03T09:29:29.786Z,0.40
2023-02-03T09:30:30.210Z,0.30
2023-02-03T09:31:29.817Z,0.30
2023-02-03T09:32:29.784Z,0.30
2023-02-03T09:33:29.779Z,0.30
2023-02-03T09:34:29.791Z,0.30
2023-02-03T09:35:29.798Z,0.40
2023-02-03T09:36:29.781Z,0.40
2023-02-03T09:37:29.970Z,0.20
2023-02-03T09:38:29.794Z,0.30
2023-02-03T09:39:29.769Z,0.30
2023-02-03T09:40:30.253Z,0.30
2023-02-03T09:41:29.768Z,0.30
2023-02-03T09:42:29.774Z,0.40
2023-02-03T09:43:29.764Z,0.40
2023-02-03T09:44:29.771Z,0.40
2023-02-03T09:45:29.763Z,0.40
2023-02-03T09:46:29.775Z,0.30
2023-02-03T09:47:29.789Z,0.30
2023-02-03T09:48:29.767Z,0.30
2023-02-03T09:49:29.759Z,0.40
2023-02-03T09:50:30.139Z,0.30
2023-02-03T09:51:29.796Z,0.30
2023-02-03T09:52:29.763Z,0.30
2023-02-03T09:53:29.761Z,0.30
2023-02-03T09:54:29.762Z,0.40
2023-02-03T09:55:29.769Z,0.30
2023-02-03T09:56:29.758Z,0.30
2023-02-03T09:57:29.761Z,0.20
2023-02-03T09:58:29.758Z,0.40
2023-02-03T09:59:29.747Z,0.40
2023-02-03T10:00:30.040Z,0.30
2023-02-03T10:01:29.829Z,0.30
2023-02-03T10:02:29.822Z,0.40
2023-02-03T10:03:29.743Z,0.30
2023-02-03T10:04:29.751Z,0.50
2023-02-03T10:05:29.745Z,0.30
2023-02-03T10:06:29.750Z,0.30
2023-02-03T10:07:29.765Z,0.30
2023-02-03T10:08:29.745Z,0.30
2023-02-03T10:09:29.737Z,0.30
2023-02-03T10:10:30.035Z,0.30
2023-02-03T10:11:29.736Z,0.40
2023-02-03T10:12:29.742Z,0.40
2023-02-03T10:13:29.732Z,0.40
2023-02-03T10:14:29.742Z,0.30
2023-02-03T10:15:29.730Z,0.40
2023-02-03T10:16:29.855Z,0.30
2023-02-03T10:17:29.733Z,0.40
2023-02-03T10:18:29.781Z,0.40
2023-02-03T10:19:29.730Z,0.30
2023-02-03T10:20:30.009Z,0.40
2023-02-03T10:21:29.751Z,0.30
2023-02-03T10:22:29.733Z,0.30
2023-02-03T10:23:29.759Z,0.30
2023-02-03T10:24:29.732Z,0.30
2023-02-03T10:25:29.737Z,0.30
2023-02-03T10:26:29.738Z,0.30
2023-02-03T10:27:29.720Z,0.50
2023-02-03T10:28:29.748Z,0.40
2023-02-03T10:29:29.715Z,0.20
2023-02-03T10:30:30.241Z,0.30
2023-02-03T10:31:29.848Z,0.30
2023-02-03T10:32:29.724Z,0.40
2023-02-03T10:33:29.715Z,0.40
2023-02-03T10:34:29.735Z,0.30
2023-02-03T10:35:29.716Z,0.40
2023-02-03T10:36:29.713Z,0.30
2023-02-03T10:37:30.466Z,0.30
2023-02-03T10:38:29.716Z,0.30
2023-02-03T10:39:29.729Z,0.30
2023-02-03T10:40:30.162Z,0.20
2023-02-03T10:41:29.702Z,0.20
2023-02-03T10:42:29.709Z,0.30
2023-02-03T10:43:29.708Z,0.40
2023-02-03T10:44:29.709Z,0.20
2023-02-03T10:45:29.698Z,0.30
2023-02-03T10:46:29.799Z,0.30
2023-02-03T10:47:29.703Z,0.40
2023-02-03T10:48:29.702Z,0.30
2023-02-03T10:49:29.702Z,0.30
2023-02-03T10:50:30.206Z,0.20
2023-02-03T10:51:29.701Z,0.30
2023-02-03T10:52:29.704Z,0.30
2023-02-03T10:53:29.698Z,0.40
2023-02-03T10:54:29.692Z,0.20
2023-02-03T10:55:29.726Z,0.30
2023-02-03T10:56:29.689Z,0.40
2023-02-03T10:57:29.695Z,0.40
2023-02-03T10:58:29.687Z,0.30
2023-02-03T10:59:29.702Z,0.30
2023-02-03T11:00:30.151Z,0.30
2023-02-03T11:01:29.744Z,0.30
2023-02-03T11:02:29.803Z,0.20
2023-02-03T11:03:29.687Z,0.30
2023-02-03T11:04:29.682Z,0.40
2023-02-03T11:05:29.769Z,0.40
2023-02-03T11:06:29.709Z,0.30
2023-02-03T11:07:29.688Z,0.30
2023-02-03T11:08:29.686Z,0.30
2023-02-03T11:09:29.687Z,0.20
2023-02-03T11:10:29.945Z,0.30
2023-02-03T11:11:29.702Z,0.30
2023-02-03T11:12:29.672Z,0.40
2023-02-03T11:13:29.678Z,0.30
2023-02-03T11:14:29.670Z,0.30
2023-02-03T11:15:29.900Z,0.30
2023-02-03T11:16:29.670Z,0.30
2023-02-03T11:17:29.713Z,0.30
2023-02-03T11:18:29.667Z,0.30
2023-02-03T11:19:29.673Z,0.30
2023-02-03T11:20:30.122Z,0.30
2023-02-03T11:21:29.667Z,0.30
2023-02-03T11:22:29.666Z,0.20
2023-02-03T11:23:29.664Z,0.40
2023-02-03T11:24:29.664Z,0.30
2023-02-03T11:25:29.669Z,0.30
2023-02-03T11:26:29.664Z,0.30
2023-02-03T11:27:29.691Z,0.30
2023-02-03T11:28:29.658Z,0.20
2023-02-03T11:29:29.681Z,0.30
2023-02-03T11:30:29.877Z,0.30
2023-02-03T11:31:29.858Z,0.30
2023-02-03T11:32:29.658Z,0.30
2023-02-03T11:33:29.655Z,0.20
2023-02-03T11:34:29.656Z,0.40
2023-02-03T11:35:29.671Z,0.30
2023-02-03T11:36:29.660Z,0.30
2023-02-03T11:37:29.731Z,0.30
2023-02-03T11:38:29.649Z,0.30
2023-02-03T11:39:29.658Z,0.30
2023-02-03T11:40:29.984Z,0.30
2023-02-03T11:41:29.654Z,0.30
2023-02-03T11:42:29.640Z,0.30
2023-02-03T11:43:29.687Z,0.30
2023-02-03T11:44:29.693Z,0.20
2023-02-03T11:45:29.669Z,0.30
2023-02-03T11:46:29.708Z,0.30
2023-02-03T11:47:29.647Z,0.30
2023-02-03T11:48:29.649Z,0.30
2023-02-03T11:49:29.677Z,0.30
2023-02-03T11:50:30.019Z,0.30
2023-02-03T11:51:29.644Z,0.30
2023-02-03T11:52:29.629Z,0.30
2023-02-03T11:53:29.635Z,0.30
2023-02-03T11:54:29.634Z,0.30
2023-02-03T11:55:29.631Z,0.40
2023-02-03T11:56:29.625Z,0.30
2023-02-03T11:57:29.634Z,0.30
2023-02-03T11:58:29.626Z,0.30
2023-02-03T11:59:29.702Z,0.30
2023-02-03T12:00:29.936Z,0.30
2023-02-03T12:01:29.628Z,0.30
2023-02-03T12:02:29.661Z,0.20
2023-02-03T12:03:29.624Z,0.30
2023-02-03T12:04:29.704Z,0.20
2023-02-03T12:05:29.630Z,0.30
2023-02-03T12:06:29.615Z,0.20
2023-02-03T12:07:29.620Z,0.20
2023-02-03T12:08:29.611Z,0.20
2023-02-03T12:09:29.626Z,0.30
2023-02-03T12:10:30.018Z,0.30
2023-02-03T12:11:29.615Z,0.20
2023-02-03T12:12:29.610Z,0.30
2023-02-03T12:13:29.613Z,0.20
2023-02-03T12:14:29.612Z,0.30
2023-02-03T12:15:29.733Z,0.30
2023-02-03T12:16:29.667Z,0.30
2023-02-03T12:17:29.612Z,0.40
2023-02-03T12:18:29.603Z,0.30
2023-02-03T12:19:29.614Z,0.30
2023-02-03T12:20:29.954Z,0.30
2023-02-03T12:21:29.606Z,0.20
2023-02-03T12:22:29.597Z,0.20
2023-02-03T12:23:29.603Z,0.30
2023-02-03T12:24:29.598Z,0.30
2023-02-03T12:25:29.610Z,0.30
2023-02-03T12:26:29.596Z,0.30
2023-02-03T12:27:29.600Z,0.30
2023-02-03T12:28:33.557Z,0.30
2023-02-03T12:29:31.915Z,0.30
2023-02-03T12:30:30.151Z,0.40
2023-02-03T12:31:29.749Z,0.30
2023-02-03T12:32:29.586Z,0.40
2023-02-03T12:33:29.599Z,0.30
2023-02-03T12:34:29.587Z,0.20
2023-02-03T12:35:31.856Z,0.30
2023-02-03T12:36:29.592Z,0.20
2023-02-03T12:37:29.611Z,0.60
2023-02-03T12:38:29.584Z,0.30
2023-02-03T12:39:29.615Z,0.20
2023-02-03T12:40:29.974Z,0.30
2023-02-03T12:41:29.596Z,0.30
2023-02-03T12:42:29.607Z,0.30
2023-02-03T12:43:29.587Z,0.30
2023-02-03T12:44:29.576Z,0.30
2023-02-03T12:45:29.664Z,0.20
2023-02-03T12:46:29.575Z,0.20
2023-02-03T12:47:29.642Z,0.30
2023-02-03T12:48:29.573Z,0.30
2023-02-03T12:49:29.580Z,0.30
2023-02-03T12:50:30.007Z,0.20
2023-02-03T12:51:29.580Z,0.30
2023-02-03T12:52:29.575Z,0.20
2023-02-03T12:53:29.573Z,0.20
2023-02-03T12:54:29.568Z,0.30
2023-02-03T12:55:29.578Z,0.30
2023-02-03T12:56:29.567Z,0.30
2023-02-03T12:57:29.574Z,0.30
2023-02-03T12:58:29.569Z,0.30
2023-02-03T12:59:29.572Z,0.30
2023-02-03T13:00:29.956Z,0.30
2023-02-03T13:01:29.598Z,0.20
2023-02-03T13:02:29.615Z,0.30
2023-02-03T13:03:29.587Z,0.40
2023-02-03T13:04:29.557Z,0.30
2023-02-03T13:05:29.563Z,0.30
2023-02-03T13:06:29.559Z,0.30
2023-02-03T13:07:29.558Z,0.30
2023-02-03T13:08:29.552Z,0.30
2023-02-03T13:09:29.575Z,0.40
2023-02-03T13:10:29.873Z,0.40
2023-02-03T13:11:29.562Z,0.40
2023-02-03T13:12:29.549Z,0.40
2023-02-03T13:13:29.565Z,0.30
2023-02-03T13:14:29.546Z,0.30
2023-02-03T13:15:29.553Z,0.30
2023-02-03T13:16:29.560Z,0.20
2023-02-03T13:17:29.555Z,0.30
2023-02-03T13:18:29.613Z,0.30